KILE/ILE METAR and TAF weather

Enter ICAO airport designator
Station Type Date Time Source
KILE METAR 2019/02/20 17:56 UTC NOAA

KILE 201756Z AUTO VRB04KT 10SM CLR 11/02 A3002 RMK AO2 SLP188 T01110022 10111 20028 58004


Station Type Date Time Source
KILE Decoded METAR 2019/02/20 17:56 UTC NOAA

Killeen, Skylark Field Airport, TX, United States (KILE) 31-05N 097-41W
Feb 20, 2019 - 12:56 PM EST / 2019.02.20 1756 UTC
Wind: Variable at 5 MPH (4 KT):0
Visibility: 10 mile(s):0
Sky conditions: clear
Temperature: 52.0 F (11.1 C)
Dew Point: 36.0 F (2.2 C)
Relative Humidity: 54%
Pressure (altimeter): 30.02 in. Hg (1016 hPa)
Pressure tendency: 0.01 inches (0.4 hPa) lower than three hours ago
ob: KILE 201756Z AUTO VRB04KT 10SM CLR 11/02 A3002 RMK AO2 SLP188 T01110022 10111 20028 58004
cycle: 18

Station Type Date Time Source
KILE TAF UTC NOAA

Error!


Example: see airport list